createdAt,value
2022-09-03T00:00:16.391Z,11.91
2022-09-03T00:02:54.254Z,11.87
2022-09-03T00:05:41.633Z,11.86
2022-09-03T00:08:23.243Z,11.90
2022-09-03T00:11:00.082Z,12.01
2022-09-03T00:13:33.222Z,12.01
2022-09-03T00:16:00.485Z,12.16
2022-09-03T00:18:32.684Z,12.29
2022-09-03T00:21:08.667Z,12.25
2022-09-03T00:23:38.605Z,12.17
2022-09-03T00:26:18.291Z,12.27
2022-09-03T00:29:00.056Z,12.29
2022-09-03T00:31:34.326Z,12.27
2022-09-03T00:34:07.076Z,12.43
2022-09-03T00:36:44.778Z,12.54
2022-09-03T00:39:16.511Z,12.50
2022-09-03T00:42:06.745Z,12.59
2022-09-03T00:44:49.732Z,12.45
2022-09-03T00:47:34.549Z,12.39
2022-09-03T00:50:19.738Z,12.35
2022-09-03T00:53:04.557Z,12.47
2022-09-03T00:55:47.329Z,12.52
2022-09-03T00:58:30.743Z,12.62
2022-09-03T01:00:57.248Z,12.64
2022-09-03T01:03:43.724Z,12.62
2022-09-03T01:06:15.893Z,12.75
2022-09-03T01:09:12.201Z,12.85
2022-09-03T01:12:17.469Z,12.97
2022-09-03T01:14:50.050Z,13.15
2022-09-03T01:17:21.407Z,13.24
2022-09-03T01:20:13.025Z,13.12
2022-09-03T01:23:01.781Z,12.94
2022-09-03T01:26:17.183Z,13.02
2022-09-03T01:28:58.065Z,12.84
2022-09-03T01:31:36.326Z,12.95
2022-09-03T01:34:12.787Z,12.94
2022-09-03T01:36:51.383Z,12.75
2022-09-03T01:39:28.894Z,12.55
2022-09-03T01:42:20.318Z,12.66
2022-09-03T01:44:58.333Z,12.72
2022-09-03T01:47:51.429Z,12.85
2022-09-03T01:50:24.217Z,12.88
2022-09-03T01:53:25.587Z,12.89
2022-09-03T01:56:19.510Z,12.82
2022-09-03T01:58:55.755Z,12.58
2022-09-03T02:01:28.558Z,12.45
2022-09-03T02:03:59.728Z,12.71
2022-09-03T02:06:27.730Z,12.84
2022-09-03T02:08:54.208Z,13.00
2022-09-03T02:11:20.739Z,12.87
2022-09-03T02:13:59.842Z,12.77
2022-09-03T02:16:30.482Z,12.80
2022-09-03T02:19:02.430Z,12.71
2022-09-03T02:21:35.020Z,12.55
2022-09-03T02:24:03.556Z,12.37
2022-09-03T02:26:30.031Z,12.39
2022-09-03T02:28:57.818Z,12.45
2022-09-03T02:31:25.535Z,12.41
2022-09-03T02:33:52.197Z,12.71
2022-09-03T02:36:27.456Z,12.90
2022-09-03T02:38:54.231Z,12.82
2022-09-03T02:41:20.865Z,12.93
2022-09-03T02:43:54.100Z,12.92
2022-09-03T02:46:36.288Z,12.90
2022-09-03T02:49:03.397Z,12.87
2022-09-03T02:51:38.205Z,12.63
2022-09-03T02:54:05.086Z,12.23
2022-09-03T02:56:32.854Z,12.35
2022-09-03T02:59:00.313Z,12.62
2022-09-03T03:01:27.590Z,12.72
2022-09-03T03:03:54.111Z,12.57
2022-09-03T03:06:21.064Z,12.42
2022-09-03T03:08:48.750Z,12.33
2022-09-03T03:11:18.430Z,12.34
2022-09-03T03:13:48.304Z,12.24
2022-09-03T03:16:16.012Z,12.15
2022-09-03T03:18:42.966Z,12.13
2022-09-03T03:21:11.298Z,12.22
2022-09-03T03:23:38.701Z,12.26
2022-09-03T03:26:08.235Z,12.32
2022-09-03T03:28:35.440Z,12.37
2022-09-03T03:31:12.660Z,12.49
2022-09-03T03:33:40.153Z,12.54
2022-09-03T03:36:07.538Z,12.26
2022-09-03T03:38:34.717Z,12.25
2022-09-03T03:41:18.215Z,12.25
2022-09-03T03:43:45.155Z,12.27
2022-09-03T03:46:12.187Z,12.24
2022-09-03T03:48:39.320Z,12.25
2022-09-03T03:51:08.168Z,12.23
2022-09-03T03:53:36.742Z,12.21
2022-09-03T03:56:13.726Z,12.19
2022-09-03T03:58:44.131Z,12.15
2022-09-03T04:01:15.607Z,12.06
2022-09-03T04:03:44.038Z,11.96
2022-09-03T04:06:12.375Z,11.99
2022-09-03T04:08:40.881Z,11.96
2022-09-03T04:11:12.479Z,11.80
2022-09-03T04:13:41.428Z,11.73
2022-09-03T04:16:14.265Z,11.62
2022-09-03T04:18:41.453Z,11.67
2022-09-03T04:21:16.367Z,11.62
2022-09-03T04:23:45.581Z,11.73
2022-09-03T04:26:18.011Z,11.71
2022-09-03T04:28:45.635Z,11.69
2022-09-03T04:31:13.914Z,11.68
2022-09-03T04:33:43.192Z,11.73
2022-09-03T04:36:20.908Z,11.66
2022-09-03T04:41:39.792Z,11.75
2022-09-03T04:44:08.589Z,11.78
2022-09-03T04:46:35.192Z,11.44
2022-09-03T04:49:02.275Z,11.42
2022-09-03T04:51:30.146Z,11.49
2022-09-03T04:53:58.936Z,11.52
2022-09-03T04:56:30.847Z,11.48
2022-09-03T04:59:01.819Z,11.38
2022-09-03T05:01:29.901Z,11.32
2022-09-03T05:03:57.264Z,11.26
2022-09-03T05:06:25.662Z,11.36
2022-09-03T05:08:52.880Z,11.42
2022-09-03T05:11:20.617Z,11.47
2022-09-03T05:13:49.089Z,11.48
2022-09-03T05:16:15.925Z,11.52
2022-09-03T05:18:42.702Z,11.55
2022-09-03T05:21:16.623Z,11.68
2022-09-03T05:23:47.706Z,11.66
2022-09-03T05:26:20.031Z,12.01
2022-09-03T05:28:46.675Z,12.21
2022-09-03T05:31:15.773Z,12.54
2022-09-03T05:33:45.462Z,12.76
2022-09-03T05:36:37.459Z,13.34
2022-09-03T05:39:05.302Z,13.68
2022-09-03T05:41:34.328Z,14.00
2022-09-03T05:44:01.974Z,14.17
2022-09-03T05:46:32.240Z,13.90
2022-09-03T05:49:00.572Z,13.96
2022-09-03T05:51:27.647Z,14.14
2022-09-03T05:53:55.579Z,14.41
2022-09-03T05:56:24.248Z,14.36
2022-09-03T05:58:56.298Z,14.25
2022-09-03T06:01:24.984Z,14.31
2022-09-03T06:04:00.561Z,14.45
2022-09-03T06:06:28.700Z,14.21
2022-09-03T06:08:58.127Z,14.16
2022-09-03T06:11:30.496Z,13.88
2022-09-03T06:13:58.055Z,14.08
2022-09-03T06:16:30.771Z,13.79
2022-09-03T06:18:59.822Z,14.00
2022-09-03T06:21:26.546Z,13.88
2022-09-03T06:23:59.772Z,13.89
2022-09-03T06:26:29.242Z,14.35
2022-09-03T06:28:56.947Z,14.58
2022-09-03T06:31:29.701Z,14.62
2022-09-03T06:33:59.686Z,14.83
2022-09-03T06:36:28.836Z,14.45
2022-09-03T06:38:56.770Z,14.34
2022-09-03T06:41:25.999Z,13.93
2022-09-03T06:43:54.712Z,13.98
2022-09-03T06:46:23.055Z,14.16
2022-09-03T06:48:54.232Z,14.15
2022-09-03T06:51:24.525Z,14.51
2022-09-03T06:53:52.701Z,14.58
2022-09-03T06:56:26.828Z,14.86
2022-09-03T06:59:00.675Z,15.00
2022-09-03T07:01:31.658Z,15.34
2022-09-03T07:04:01.164Z,15.68
2022-09-03T07:06:33.043Z,15.91
2022-09-03T07:09:00.307Z,16.13
2022-09-03T07:11:29.231Z,16.49
2022-09-03T07:13:56.212Z,16.73
2022-09-03T07:16:25.698Z,16.97
2022-09-03T07:18:52.641Z,17.09
2022-09-03T07:21:22.454Z,17.23
2022-09-03T07:23:52.187Z,17.08
2022-09-03T07:26:21.834Z,17.26
2022-09-03T07:28:49.564Z,17.33
2022-09-03T07:31:25.669Z,17.35
2022-09-03T07:33:56.225Z,17.86
2022-09-03T07:36:24.377Z,18.12
2022-09-03T07:38:51.136Z,17.77
2022-09-03T07:41:17.703Z,18.06
2022-09-03T07:43:54.892Z,17.71
2022-09-03T07:46:23.806Z,17.88
2022-09-03T07:48:52.701Z,17.77
2022-09-03T07:51:21.075Z,17.85
2022-09-03T07:53:48.718Z,17.75
2022-09-03T07:56:15.744Z,17.79
2022-09-03T07:58:42.552Z,17.57
2022-09-03T08:01:14.142Z,17.11
2022-09-03T08:03:45.447Z,16.75
2022-09-03T08:06:12.963Z,16.53
2022-09-03T08:08:40.320Z,16.92
2022-09-03T08:11:11.085Z,16.87
2022-09-03T08:13:41.917Z,17.08
2022-09-03T08:16:09.477Z,16.85
2022-09-03T08:18:39.305Z,16.76
2022-09-03T08:21:12.773Z,16.78
2022-09-03T08:23:40.275Z,16.76
2022-09-03T08:26:07.779Z,16.65
2022-09-03T08:28:35.622Z,16.35
2022-09-03T08:31:07.144Z,16.46
2022-09-03T08:33:39.591Z,16.53
2022-09-03T08:36:14.800Z,16.25
2022-09-03T08:38:43.632Z,17.11
2022-09-03T08:41:37.630Z,18.17
2022-09-03T08:44:25.993Z,18.50
2022-09-03T08:47:20.800Z,18.45
2022-09-03T08:50:06.201Z,18.26
2022-09-03T08:52:50.051Z,18.17
2022-09-03T08:55:45.578Z,18.76
2022-09-03T08:58:15.316Z,19.25
2022-09-03T09:01:03.439Z,18.99
2022-09-03T09:03:32.865Z,19.50
2022-09-03T09:06:25.760Z,19.56
2022-09-03T09:09:11.135Z,19.79
2022-09-03T09:11:40.518Z,20.07
2022-09-03T09:14:25.628Z,19.75
2022-09-03T09:17:01.336Z,19.82
2022-09-03T09:19:50.159Z,19.42
2022-09-03T09:22:54.554Z,19.63
2022-09-03T09:25:23.489Z,20.09
2022-09-03T09:28:04.759Z,20.06
2022-09-03T09:30:32.570Z,20.06
2022-09-03T09:33:00.615Z,20.25
2022-09-03T09:35:27.485Z,20.10
2022-09-03T09:37:56.402Z,20.60
2022-09-03T09:40:34.662Z,20.69
2022-09-03T09:43:11.848Z,20.44
2022-09-03T09:45:40.984Z,20.15
2022-09-03T09:48:31.117Z,20.55
2022-09-03T09:51:33.554Z,20.62
2022-09-03T09:54:08.695Z,20.26
2022-09-03T09:56:35.226Z,20.21
2022-09-03T09:59:06.972Z,20.11
2022-09-03T10:01:34.743Z,20.41
2022-09-03T10:04:10.806Z,20.75
2022-09-03T10:06:56.491Z,20.68
2022-09-03T10:09:30.866Z,20.64
2022-09-03T10:12:05.144Z,20.23
2022-09-03T10:14:39.769Z,20.67
2022-09-03T10:17:24.935Z,20.40
2022-09-03T10:20:28.021Z,20.75
2022-09-03T10:23:16.371Z,20.58
2022-09-03T10:26:07.416Z,20.88
2022-09-03T10:28:40.841Z,21.15
2022-09-03T10:31:17.651Z,20.89
2022-09-03T10:34:37.231Z,21.09
2022-09-03T10:37:16.923Z,21.21
2022-09-03T10:39:52.311Z,21.46
2022-09-03T10:42:24.909Z,21.42
2022-09-03T10:45:06.937Z,21.75
2022-09-03T10:48:22.471Z,21.42
2022-09-03T10:51:06.883Z,21.10
2022-09-03T10:54:18.796Z,21.48
2022-09-03T10:57:12.468Z,21.39
2022-09-03T11:00:12.863Z,20.87
2022-09-03T11:02:45.448Z,21.21
2022-09-03T11:05:59.080Z,21.43
2022-09-03T11:08:30.345Z,21.67
2022-09-03T11:11:10.703Z,21.43
2022-09-03T11:13:44.369Z,21.84
2022-09-03T11:16:18.316Z,21.44
2022-09-03T11:18:49.514Z,21.25
2022-09-03T11:21:19.765Z,21.48
2022-09-03T11:23:49.434Z,21.74
2022-09-03T11:26:23.965Z,22.19
2022-09-03T11:28:56.133Z,21.52
2022-09-03T11:31:50.843Z,20.78
2022-09-03T11:34:31.654Z,20.17
2022-09-03T11:37:18.791Z,19.90
2022-09-03T11:39:52.879Z,20.65
2022-09-03T11:42:35.151Z,20.55
2022-09-03T11:45:23.063Z,21.16
2022-09-03T11:47:50.088Z,21.45
2022-09-03T11:50:21.795Z,21.32
2022-09-03T11:52:51.970Z,21.12
2022-09-03T11:55:50.115Z,21.09
2022-09-03T11:58:25.566Z,21.04
2022-09-03T12:00:55.000Z,21.30
2022-09-03T12:03:28.522Z,20.78
2022-09-03T12:06:16.983Z,20.74
2022-09-03T12:08:59.173Z,21.61
2022-09-03T12:11:44.631Z,21.27
2022-09-03T12:14:22.843Z,20.61
2022-09-03T12:17:22.419Z,20.89
2022-09-03T12:19:54.107Z,20.99
2022-09-03T12:22:23.905Z,20.94
2022-09-03T12:24:51.687Z,21.15
2022-09-03T12:27:24.711Z,21.27
2022-09-03T12:29:59.471Z,21.43
2022-09-03T12:32:40.377Z,21.36
2022-09-03T12:38:10.615Z,21.16
2022-09-03T12:43:39.181Z,21.18
2022-09-03T12:46:14.051Z,21.33
2022-09-03T12:51:56.690Z,21.43
2022-09-03T12:54:29.107Z,21.43
2022-09-03T12:56:58.537Z,21.48
2022-09-03T12:59:27.322Z,21.15
2022-09-03T13:02:00.969Z,20.92
2022-09-03T13:04:32.661Z,20.57
2022-09-03T13:07:14.150Z,20.66
2022-09-03T13:09:41.530Z,20.98
2022-09-03T13:15:30.040Z,21.35
2022-09-03T13:18:08.191Z,21.27
2022-09-03T13:20:49.181Z,21.10
2022-09-03T13:23:30.765Z,21.10
2022-09-03T13:26:28.178Z,21.18
2022-09-03T13:29:22.327Z,20.92
2022-09-03T13:31:55.764Z,21.43
2022-09-03T13:34:35.451Z,21.02
2022-09-03T13:37:23.319Z,21.02
2022-09-03T13:39:55.164Z,21.35
2022-09-03T13:42:31.381Z,20.96
2022-09-03T13:45:13.419Z,20.31
2022-09-03T13:48:03.184Z,20.32
2022-09-03T13:50:40.469Z,20.91
2022-09-03T13:53:16.469Z,21.13
2022-09-03T13:56:05.194Z,20.66
2022-09-03T13:58:42.449Z,20.41
2022-09-03T14:01:20.459Z,20.38
2022-09-03T14:06:40.230Z,20.50
2022-09-03T14:12:25.719Z,20.83
2022-09-03T14:14:53.798Z,20.96
2022-09-03T14:17:29.294Z,20.68
2022-09-03T14:20:05.743Z,21.05
2022-09-03T14:23:00.414Z,21.00
2022-09-03T14:25:27.830Z,20.61
2022-09-03T14:28:15.090Z,20.23
2022-09-03T14:30:55.810Z,20.06
2022-09-03T14:33:31.575Z,20.23
2022-09-03T14:36:17.021Z,19.78
2022-09-03T14:39:20.313Z,18.72
2022-09-03T14:42:33.364Z,18.93
2022-09-03T14:45:39.453Z,19.28
2022-09-03T14:48:30.827Z,19.12
2022-09-03T14:51:19.947Z,19.25
2022-09-03T14:54:07.993Z,19.05
2022-09-03T14:56:46.331Z,19.39
2022-09-03T14:59:20.341Z,18.98
2022-09-03T15:01:54.543Z,18.92
2022-09-03T15:04:28.890Z,18.82
2022-09-03T15:07:13.869Z,18.67
2022-09-03T15:09:47.023Z,18.89
2022-09-03T15:12:13.389Z,18.70
2022-09-03T15:14:50.869Z,18.87
2022-09-03T15:17:25.552Z,18.88
2022-09-03T15:20:12.915Z,18.57
2022-09-03T15:23:02.385Z,18.19
2022-09-03T15:25:52.149Z,18.02
2022-09-03T15:28:38.503Z,17.98
2022-09-03T15:31:32.473Z,17.96
2022-09-03T15:34:16.485Z,17.76
2022-09-03T15:36:51.724Z,17.06
2022-09-03T15:39:24.280Z,17.15
2022-09-03T15:41:56.056Z,17.22
2022-09-03T15:44:23.493Z,17.33
2022-09-03T15:47:00.636Z,17.46
2022-09-03T15:49:48.655Z,17.32
2022-09-03T15:52:21.174Z,17.16
2022-09-03T15:55:26.165Z,17.27
2022-09-03T15:57:52.727Z,17.29
2022-09-03T16:00:22.136Z,17.29
2022-09-03T16:02:59.057Z,17.12
2022-09-03T16:05:45.620Z,16.97
2022-09-03T16:08:42.335Z,16.73
2022-09-03T16:11:15.807Z,16.72
2022-09-03T16:14:07.187Z,16.55
2022-09-03T16:16:49.784Z,16.64
2022-09-03T16:19:34.398Z,16.64
2022-09-03T16:22:04.967Z,16.63
2022-09-03T16:24:41.754Z,16.70
2022-09-03T16:27:18.377Z,16.73
2022-09-03T16:29:59.209Z,16.31
2022-09-03T16:32:43.465Z,16.41
2022-09-03T16:35:19.102Z,16.40
2022-09-03T16:38:27.421Z,16.35
2022-09-03T16:40:58.614Z,16.33
2022-09-03T16:43:47.855Z,16.23
2022-09-03T16:46:17.355Z,16.37
2022-09-03T16:49:10.614Z,16.22
2022-09-03T16:51:56.662Z,16.38
2022-09-03T16:54:55.730Z,16.24
2022-09-03T16:57:34.378Z,16.20
2022-09-03T17:00:11.078Z,15.95
2022-09-03T17:03:01.734Z,16.11
2022-09-03T17:06:05.982Z,16.08
2022-09-03T17:08:46.697Z,16.21
2022-09-03T17:11:38.397Z,16.19
2022-09-03T17:14:26.350Z,16.03
2022-09-03T17:17:09.613Z,16.12
2022-09-03T17:19:43.882Z,15.91
2022-09-03T17:22:32.810Z,15.87
2022-09-03T17:25:04.611Z,15.94
2022-09-03T17:27:45.157Z,15.71
2022-09-03T17:30:24.022Z,15.79
2022-09-03T17:33:51.711Z,15.66
2022-09-03T17:36:31.468Z,15.69
2022-09-03T17:39:35.145Z,15.80
2022-09-03T17:42:06.456Z,15.69
2022-09-03T17:44:54.448Z,15.75
2022-09-03T17:47:35.475Z,15.73
2022-09-03T17:50:17.438Z,15.58
2022-09-03T17:52:55.934Z,15.39
2022-09-03T17:55:42.155Z,15.33
2022-09-03T17:58:11.110Z,15.37
2022-09-03T18:01:02.542Z,15.33
2022-09-03T18:03:37.334Z,15.46
2022-09-03T18:06:07.210Z,15.52
2022-09-03T18:08:58.034Z,15.54
2022-09-03T18:11:50.910Z,15.49
2022-09-03T18:14:24.719Z,15.47
2022-09-03T18:17:07.345Z,15.42
2022-09-03T18:20:03.352Z,15.26
2022-09-03T18:22:59.617Z,15.15
2022-09-03T18:25:45.581Z,15.26
2022-09-03T18:28:33.609Z,15.12
2022-09-03T18:31:18.956Z,15.15
2022-09-03T18:34:04.409Z,15.15
2022-09-03T18:36:51.295Z,15.28
2022-09-03T18:39:45.511Z,15.34
2022-09-03T18:42:33.941Z,15.16
2022-09-03T18:45:47.821Z,15.13
2022-09-03T18:49:13.265Z,15.12
2022-09-03T18:52:21.687Z,15.04
2022-09-03T18:55:12.705Z,14.90
2022-09-03T18:58:20.795Z,14.79
2022-09-03T19:01:27.610Z,14.73
2022-09-03T19:04:50.182Z,14.90
2022-09-03T19:08:06.387Z,14.90
2022-09-03T19:10:58.418Z,14.86
2022-09-03T19:13:53.741Z,14.81
2022-09-03T19:16:47.372Z,14.96
2022-09-03T19:19:44.647Z,14.82
2022-09-03T19:22:41.179Z,14.73
2022-09-03T19:25:31.912Z,14.66
2022-09-03T19:28:40.319Z,14.58
2022-09-03T19:31:33.665Z,14.50
2022-09-03T19:34:37.731Z,14.42
2022-09-03T19:37:34.568Z,14.48
2022-09-03T19:40:46.167Z,14.49
2022-09-03T19:43:40.673Z,14.25
2022-09-03T19:46:44.804Z,13.90
2022-09-03T19:49:54.486Z,13.77
2022-09-03T19:53:18.574Z,13.60
2022-09-03T19:56:07.930Z,13.47
2022-09-03T19:58:55.218Z,13.58
2022-09-03T20:01:40.978Z,13.47
2022-09-03T20:04:32.333Z,13.44
2022-09-03T20:07:19.596Z,13.38
2022-09-03T20:10:05.820Z,13.20
2022-09-03T20:12:40.182Z,12.97
2022-09-03T20:15:08.122Z,12.66
2022-09-03T20:17:40.561Z,12.68
2022-09-03T20:20:16.038Z,12.58
2022-09-03T20:22:58.374Z,12.50
2022-09-03T20:25:33.880Z,12.57
2022-09-03T20:28:28.517Z,12.61
2022-09-03T20:31:05.596Z,12.53
2022-09-03T20:33:47.270Z,12.53
2022-09-03T20:36:30.114Z,12.32
2022-09-03T20:39:21.260Z,12.37
2022-09-03T20:42:03.574Z,12.38
2022-09-03T20:44:39.169Z,12.48
2022-09-03T20:47:29.464Z,12.57
2022-09-03T20:50:20.477Z,12.60
2022-09-03T20:53:15.633Z,12.63
2022-09-03T20:55:43.966Z,12.69
2022-09-03T20:58:35.921Z,12.57
2022-09-03T21:01:05.879Z,12.65
2022-09-03T21:03:47.812Z,12.53
2022-09-03T21:06:32.034Z,12.60
2022-09-03T21:09:29.482Z,12.61
2022-09-03T21:12:17.905Z,12.69
2022-09-03T21:14:55.408Z,12.59
2022-09-03T21:17:28.009Z,12.65
2022-09-03T21:20:00.768Z,12.74
2022-09-03T21:22:48.691Z,12.78
2022-09-03T21:25:24.289Z,12.85
2022-09-03T21:28:01.905Z,13.11
2022-09-03T21:30:29.900Z,13.16
2022-09-03T21:33:12.506Z,13.02
2022-09-03T21:35:42.932Z,12.95
2022-09-03T21:38:14.509Z,13.00
2022-09-03T21:40:47.323Z,13.00
2022-09-03T21:43:33.792Z,12.79
2022-09-03T21:46:15.368Z,12.81
2022-09-03T21:49:00.962Z,12.70
2022-09-03T21:51:35.981Z,12.68
2022-09-03T21:54:09.940Z,12.67
2022-09-03T21:57:06.189Z,12.53
2022-09-03T21:59:36.703Z,12.60
2022-09-03T22:02:06.062Z,12.63
2022-09-03T22:04:32.839Z,12.67
2022-09-03T22:07:29.952Z,12.59
2022-09-03T22:10:13.367Z,12.80
2022-09-03T22:13:15.099Z,12.68
2022-09-03T22:15:50.961Z,12.73
2022-09-03T22:18:29.359Z,12.72
2022-09-03T22:21:03.102Z,12.68
2022-09-03T22:23:43.689Z,12.65
2022-09-03T22:26:22.547Z,12.70
2022-09-03T22:29:02.633Z,12.52
2022-09-03T22:31:39.996Z,12.23
2022-09-03T22:34:15.547Z,12.24
2022-09-03T22:36:50.446Z,12.19
2022-09-03T22:39:37.605Z,12.05
2022-09-03T22:42:28.190Z,12.05
2022-09-03T22:45:03.937Z,12.11
2022-09-03T22:47:54.756Z,12.14
2022-09-03T22:50:28.503Z,12.11
2022-09-03T22:53:23.370Z,12.09
2022-09-03T22:56:00.980Z,11.91
2022-09-03T22:58:33.247Z,12.04
2022-09-03T23:01:08.357Z,12.04
2022-09-03T23:03:42.273Z,12.00
2022-09-03T23:06:46.923Z,12.06
2022-09-03T23:09:21.547Z,12.10
2022-09-03T23:11:52.490Z,12.20
2022-09-03T23:14:24.157Z,12.26
2022-09-03T23:16:52.814Z,12.32
2022-09-03T23:19:43.795Z,12.22
2022-09-03T23:22:13.264Z,12.30
2022-09-03T23:24:59.706Z,12.55
2022-09-03T23:27:31.772Z,12.53
2022-09-03T23:30:00.892Z,12.50
2022-09-03T23:32:33.099Z,12.61
2022-09-03T23:35:02.000Z,12.65
2022-09-03T23:37:47.341Z,12.78
2022-09-03T23:40:33.055Z,12.79
2022-09-03T23:43:09.226Z,12.56
2022-09-03T23:46:04.485Z,12.48
2022-09-03T23:48:40.001Z,12.23
2022-09-03T23:51:13.949Z,12.02
2022-09-03T23:53:49.400Z,11.95
2022-09-03T23:56:40.496Z,11.92
2022-09-03T23:59:47.507Z,11.80
